sensor_id;sensor_type;location;lat;lon;timestamp;temperature;humidity
8856;DHT22;4464;50.882;4.730;2023-08-07T00:01:19;13.00;99.90
8856;DHT22;4464;50.882;4.730;2023-08-07T00:03:45;13.00;99.90
8856;DHT22;4464;50.882;4.730;2023-08-07T00:06:13;13.00;99.90
8856;DHT22;4464;50.882;4.730;2023-08-07T00:08:39;13.00;99.90
8856;DHT22;4464;50.882;4.730;2023-08-07T00:11:09;13.00;99.90
8856;DHT22;4464;50.882;4.730;2023-08-07T00:13:35;13.00;99.90
8856;DHT22;4464;50.882;4.730;2023-08-07T00:16:01;13.00;99.90
8856;DHT22;4464;50.882;4.730;2023-08-07T00:18:30;13.00;99.90
8856;DHT22;4464;50.882;4.730;2023-08-07T00:20:55;13.00;99.90
8856;DHT22;4464;50.882;4.730;2023-08-07T00:23:21;13.00;99.90
8856;DHT22;4464;50.882;4.730;2023-08-07T00:25:49;13.00;99.90
8856;DHT22;4464;50.882;4.730;2023-08-07T00:28:15;13.00;99.90
8856;DHT22;4464;50.882;4.730;2023-08-07T00:30:41;13.00;99.90
8856;DHT22;4464;50.882;4.730;2023-08-07T00:33:06;13.10;99.90
8856;DHT22;4464;50.882;4.730;2023-08-07T00:35:34;13.00;99.90
8856;DHT22;4464;50.882;4.730;2023-08-07T00:38:00;13.00;99.90
8856;DHT22;4464;50.882;4.730;2023-08-07T00:40:26;13.00;99.90
8856;DHT22;4464;50.882;4.730;2023-08-07T00:42:51;13.00;99.90
8856;DHT22;4464;50.882;4.730;2023-08-07T00:45:17;12.90;99.90
8856;DHT22;4464;50.882;4.730;2023-08-07T00:47:46;12.90;99.90
8856;DHT22;4464;50.882;4.730;2023-08-07T00:50:12;12.90;99.90
8856;DHT22;4464;50.882;4.730;2023-08-07T00:52:38;12.80;99.90
8856;DHT22;4464;50.882;4.730;2023-08-07T00:55:06;12.70;99.90
8856;DHT22;4464;50.882;4.730;2023-08-07T00:57:35;12.70;99.90
8856;DHT22;4464;50.882;4.730;2023-08-07T01:00:02;12.60;99.90
8856;DHT22;4464;50.882;4.730;2023-08-07T01:02:28;12.60;99.90
8856;DHT22;4464;50.882;4.730;2023-08-07T01:04:54;12.70;99.90
8856;DHT22;4464;50.882;4.730;2023-08-07T01:07:20;12.70;99.90
8856;DHT22;4464;50.882;4.730;2023-08-07T01:09:47;12.70;99.90
8856;DHT22;4464;50.882;4.730;2023-08-07T01:12:20;12.70;99.90
8856;DHT22;4464;50.882;4.730;2023-08-07T01:15:16;12.70;99.90
8856;DHT22;4464;50.882;4.730;2023-08-07T01:17:45;12.70;99.90
8856;DHT22;4464;50.882;4.730;2023-08-07T01:20:11;12.70;99.90
8856;DHT22;4464;50.882;4.730;2023-08-07T01:22:40;12.70;99.90
8856;DHT22;4464;50.882;4.730;2023-08-07T01:25:06;12.70;99.90
8856;DHT22;4464;50.882;4.730;2023-08-07T01:27:45;12.80;99.90
8856;DHT22;4464;50.882;4.730;2023-08-07T01:30:30;12.80;99.90
8856;DHT22;4464;50.882;4.730;2023-08-07T01:35:57;12.70;99.90
8856;DHT22;4464;50.882;4.730;2023-08-07T01:38:26;12.70;99.90
8856;DHT22;4464;50.882;4.730;2023-08-07T01:40:52;12.70;99.90
8856;DHT22;4464;50.882;4.730;2023-08-07T01:43:19;12.60;99.90
8856;DHT22;4464;50.882;4.730;2023-08-07T01:45:45;12.60;99.90
8856;DHT22;4464;50.882;4.730;2023-08-07T01:48:11;12.60;99.90
8856;DHT22;4464;50.882;4.730;2023-08-07T01:50:38;12.60;99.90
8856;DHT22;4464;50.882;4.730;2023-08-07T01:53:05;12.60;99.90
8856;DHT22;4464;50.882;4.730;2023-08-07T01:55:33;12.60;99.90
8856;DHT22;4464;50.882;4.730;2023-08-07T01:57:59;12.70;99.90
8856;DHT22;4464;50.882;4.730;2023-08-07T02:00:24;12.60;99.90
8856;DHT22;4464;50.882;4.730;2023-08-07T02:02:50;12.60;99.90
8856;DHT22;4464;50.882;4.730;2023-08-07T02:05:16;12.60;99.90
8856;DHT22;4464;50.882;4.730;2023-08-07T02:07:44;12.70;99.90
8856;DHT22;4464;50.882;4.730;2023-08-07T02:10:12;12.70;99.90
8856;DHT22;4464;50.882;4.730;2023-08-07T02:12:42;12.70;99.90
8856;DHT22;4464;50.882;4.730;2023-08-07T02:15:10;12.70;99.90
8856;DHT22;4464;50.882;4.730;2023-08-07T02:17:36;12.70;99.90
8856;DHT22;4464;50.882;4.730;2023-08-07T02:20:05;12.70;99.90
8856;DHT22;4464;50.882;4.730;2023-08-07T02:22:31;12.70;99.90
8856;DHT22;4464;50.882;4.730;2023-08-07T02:24:59;12.80;99.90
8856;DHT22;4464;50.882;4.730;2023-08-07T02:27:27;12.70;99.90
8856;DHT22;4464;50.882;4.730;2023-08-07T02:29:56;12.70;99.90
8856;DHT22;4464;50.882;4.730;2023-08-07T02:32:23;12.70;99.90
8856;DHT22;4464;50.882;4.730;2023-08-07T02:34:49;12.70;99.90
8856;DHT22;4464;50.882;4.730;2023-08-07T02:37:15;12.60;99.90
8856;DHT22;4464;50.882;4.730;2023-08-07T02:39:42;12.70;99.90
8856;DHT22;4464;50.882;4.730;2023-08-07T02:42:08;12.60;99.90
8856;DHT22;4464;50.882;4.730;2023-08-07T02:44:34;12.60;99.90
8856;DHT22;4464;50.882;4.730;2023-08-07T02:47:02;12.60;99.90
8856;DHT22;4464;50.882;4.730;2023-08-07T02:49:28;12.50;99.90
8856;DHT22;4464;50.882;4.730;2023-08-07T02:51:55;12.50;99.90
8856;DHT22;4464;50.882;4.730;2023-08-07T02:54:21;12.60;99.90
8856;DHT22;4464;50.882;4.730;2023-08-07T02:56:49;12.60;99.90
8856;DHT22;4464;50.882;4.730;2023-08-07T02:59:15;12.60;99.90
8856;DHT22;4464;50.882;4.730;2023-08-07T03:01:44;12.60;99.90
8856;DHT22;4464;50.882;4.730;2023-08-07T03:04:09;12.60;99.90
8856;DHT22;4464;50.882;4.730;2023-08-07T03:06:38;12.60;99.90
8856;DHT22;4464;50.882;4.730;2023-08-07T03:09:03;12.60;99.90
8856;DHT22;4464;50.882;4.730;2023-08-07T03:11:29;12.50;99.90
8856;DHT22;4464;50.882;4.730;2023-08-07T03:13:55;12.50;99.90
8856;DHT22;4464;50.882;4.730;2023-08-07T03:16:21;12.50;99.90
8856;DHT22;4464;50.882;4.730;2023-08-07T03:18:49;12.40;99.90
8856;DHT22;4464;50.882;4.730;2023-08-07T03:21:17;12.40;99.90
8856;DHT22;4464;50.882;4.730;2023-08-07T03:23:43;12.40;99.90
8856;DHT22;4464;50.882;4.730;2023-08-07T03:26:11;12.40;99.90
8856;DHT22;4464;50.882;4.730;2023-08-07T03:28:38;12.40;99.90
8856;DHT22;4464;50.882;4.730;2023-08-07T03:31:05;12.40;99.90
8856;DHT22;4464;50.882;4.730;2023-08-07T03:33:31;12.30;99.90
8856;DHT22;4464;50.882;4.730;2023-08-07T03:36:01;12.30;99.90
8856;DHT22;4464;50.882;4.730;2023-08-07T03:38:30;12.40;99.90
8856;DHT22;4464;50.882;4.730;2023-08-07T03:40:56;12.30;99.90
8856;DHT22;4464;50.882;4.730;2023-08-07T03:43:21;12.40;99.90
8856;DHT22;4464;50.882;4.730;2023-08-07T03:45:47;12.40;99.90
8856;DHT22;4464;50.882;4.730;2023-08-07T03:48:13;12.50;99.90
8856;DHT22;4464;50.882;4.730;2023-08-07T03:50:39;12.50;99.90
8856;DHT22;4464;50.882;4.730;2023-08-07T03:53:06;12.60;99.90
8856;DHT22;4464;50.882;4.730;2023-08-07T03:55:35;12.70;99.90
8856;DHT22;4464;50.882;4.730;2023-08-07T03:58:01;12.80;99.90
8856;DHT22;4464;50.882;4.730;2023-08-07T04:00:29;12.90;99.90
8856;DHT22;4464;50.882;4.730;2023-08-07T04:02:55;12.90;99.90
8856;DHT22;4464;50.882;4.730;2023-08-07T04:05:20;12.90;99.90
8856;DHT22;4464;50.882;4.730;2023-08-07T04:07:46;13.00;99.90
8856;DHT22;4464;50.882;4.730;2023-08-07T04:10:14;13.00;99.90
8856;DHT22;4464;50.882;4.730;2023-08-07T04:12:40;13.10;99.90
8856;DHT22;4464;50.882;4.730;2023-08-07T04:15:06;13.10;99.90
8856;DHT22;4464;50.882;4.730;2023-08-07T04:17:34;13.10;99.90
8856;DHT22;4464;50.882;4.730;2023-08-07T04:20:00;13.10;99.90
8856;DHT22;4464;50.882;4.730;2023-08-07T04:22:30;13.10;99.90
8856;DHT22;4464;50.882;4.730;2023-08-07T04:24:56;13.00;99.90
8856;DHT22;4464;50.882;4.730;2023-08-07T04:27:22;13.00;99.90
8856;DHT22;4464;50.882;4.730;2023-08-07T04:29:50;13.00;99.90
8856;DHT22;4464;50.882;4.730;2023-08-07T04:32:18;13.00;99.90
8856;DHT22;4464;50.882;4.730;2023-08-07T04:34:43;13.00;99.90
8856;DHT22;4464;50.882;4.730;2023-08-07T04:37:09;13.00;99.90
8856;DHT22;4464;50.882;4.730;2023-08-07T04:39:35;13.10;99.90
8856;DHT22;4464;50.882;4.730;2023-08-07T04:42:02;13.10;99.90
8856;DHT22;4464;50.882;4.730;2023-08-07T04:44:28;13.10;99.90
8856;DHT22;4464;50.882;4.730;2023-08-07T04:46:53;13.10;99.90
8856;DHT22;4464;50.882;4.730;2023-08-07T04:49:21;13.20;99.90
8856;DHT22;4464;50.882;4.730;2023-08-07T04:51:47;13.20;99.90
8856;DHT22;4464;50.882;4.730;2023-08-07T04:54:13;13.20;99.90
8856;DHT22;4464;50.882;4.730;2023-08-07T04:56:42;13.20;99.90
8856;DHT22;4464;50.882;4.730;2023-08-07T04:59:10;13.30;99.90
8856;DHT22;4464;50.882;4.730;2023-08-07T05:01:36;13.30;99.90
8856;DHT22;4464;50.882;4.730;2023-08-07T05:04:02;13.30;99.90
8856;DHT22;4464;50.882;4.730;2023-08-07T05:06:28;13.30;99.90
8856;DHT22;4464;50.882;4.730;2023-08-07T05:08:53;13.20;99.90
8856;DHT22;4464;50.882;4.730;2023-08-07T05:11:19;13.20;99.90
8856;DHT22;4464;50.882;4.730;2023-08-07T05:13:46;13.20;99.90
8856;DHT22;4464;50.882;4.730;2023-08-07T05:16:11;13.20;99.90
8856;DHT22;4464;50.882;4.730;2023-08-07T05:18:40;13.10;99.90
8856;DHT22;4464;50.882;4.730;2023-08-07T05:21:05;13.10;99.90
8856;DHT22;4464;50.882;4.730;2023-08-07T05:23:34;13.10;99.90
8856;DHT22;4464;50.882;4.730;2023-08-07T05:25:59;13.10;99.90
8856;DHT22;4464;50.882;4.730;2023-08-07T05:28:25;13.10;99.90
8856;DHT22;4464;50.882;4.730;2023-08-07T05:30:51;13.10;99.90
8856;DHT22;4464;50.882;4.730;2023-08-07T05:33:17;13.10;99.90
8856;DHT22;4464;50.882;4.730;2023-08-07T05:35:42;13.10;99.90
8856;DHT22;4464;50.882;4.730;2023-08-07T05:38:08;13.10;99.90
8856;DHT22;4464;50.882;4.730;2023-08-07T05:40:36;13.10;99.90
8856;DHT22;4464;50.882;4.730;2023-08-07T05:43:02;13.10;99.90
8856;DHT22;4464;50.882;4.730;2023-08-07T05:45:28;13.10;99.90
8856;DHT22;4464;50.882;4.730;2023-08-07T05:47:54;13.20;99.90
8856;DHT22;4464;50.882;4.730;2023-08-07T05:50:19;13.20;99.90
8856;DHT22;4464;50.882;4.730;2023-08-07T05:52:45;13.30;99.90
8856;DHT22;4464;50.882;4.730;2023-08-07T05:55:13;13.40;99.90
8856;DHT22;4464;50.882;4.730;2023-08-07T05:57:39;13.40;99.90
8856;DHT22;4464;50.882;4.730;2023-08-07T06:00:08;13.50;99.90
8856;DHT22;4464;50.882;4.730;2023-08-07T06:02:39;13.50;99.90
8856;DHT22;4464;50.882;4.730;2023-08-07T06:05:07;13.60;99.90
8856;DHT22;4464;50.882;4.730;2023-08-07T06:07:34;13.60;99.90
8856;DHT22;4464;50.882;4.730;2023-08-07T06:10:00;13.70;99.90
8856;DHT22;4464;50.882;4.730;2023-08-07T06:12:26;13.80;99.90
8856;DHT22;4464;50.882;4.730;2023-08-07T06:14:52;13.90;99.90
8856;DHT22;4464;50.882;4.730;2023-08-07T06:17:18;13.90;99.90
8856;DHT22;4464;50.882;4.730;2023-08-07T06:19:47;14.00;99.90
8856;DHT22;4464;50.882;4.730;2023-08-07T06:22:13;14.10;99.90
8856;DHT22;4464;50.882;4.730;2023-08-07T06:24:39;14.10;99.90
8856;DHT22;4464;50.882;4.730;2023-08-07T06:27:05;14.20;99.90
8856;DHT22;4464;50.882;4.730;2023-08-07T06:29:31;14.30;99.90
8856;DHT22;4464;50.882;4.730;2023-08-07T06:31:56;14.30;99.90
8856;DHT22;4464;50.882;4.730;2023-08-07T06:34:22;14.40;99.90
8856;DHT22;4464;50.882;4.730;2023-08-07T06:36:50;14.40;99.90
8856;DHT22;4464;50.882;4.730;2023-08-07T06:39:19;14.50;99.90
8856;DHT22;4464;50.882;4.730;2023-08-07T06:41:47;14.50;99.90
8856;DHT22;4464;50.882;4.730;2023-08-07T06:44:13;14.60;99.90
8856;DHT22;4464;50.882;4.730;2023-08-07T06:46:39;14.60;99.90
8856;DHT22;4464;50.882;4.730;2023-08-07T06:49:04;14.70;99.90
8856;DHT22;4464;50.882;4.730;2023-08-07T06:51:33;14.80;99.90
8856;DHT22;4464;50.882;4.730;2023-08-07T06:53:58;14.90;99.90
8856;DHT22;4464;50.882;4.730;2023-08-07T06:56:26;14.90;99.90
8856;DHT22;4464;50.882;4.730;2023-08-07T06:58:55;15.00;99.90
8856;DHT22;4464;50.882;4.730;2023-08-07T07:01:23;15.10;99.90
8856;DHT22;4464;50.882;4.730;2023-08-07T07:03:48;15.20;99.90
8856;DHT22;4464;50.882;4.730;2023-08-07T07:06:18;15.40;99.90
8856;DHT22;4464;50.882;4.730;2023-08-07T07:08:44;15.50;99.90
8856;DHT22;4464;50.882;4.730;2023-08-07T07:11:12;15.50;99.90
8856;DHT22;4464;50.882;4.730;2023-08-07T07:13:38;15.50;99.90
8856;DHT22;4464;50.882;4.730;2023-08-07T07:16:04;15.60;99.90
8856;DHT22;4464;50.882;4.730;2023-08-07T07:18:30;15.70;99.90
8856;DHT22;4464;50.882;4.730;2023-08-07T07:20:59;15.80;99.90
8856;DHT22;4464;50.882;4.730;2023-08-07T07:23:26;15.80;99.90
8856;DHT22;4464;50.882;4.730;2023-08-07T07:25:52;15.90;99.90
8856;DHT22;4464;50.882;4.730;2023-08-07T07:28:18;16.00;99.90
8856;DHT22;4464;50.882;4.730;2023-08-07T07:30:43;16.10;99.90
8856;DHT22;4464;50.882;4.730;2023-08-07T07:33:09;16.10;99.90
8856;DHT22;4464;50.882;4.730;2023-08-07T07:35:38;16.20;99.90
8856;DHT22;4464;50.882;4.730;2023-08-07T07:38:05;16.30;99.90
8856;DHT22;4464;50.882;4.730;2023-08-07T07:40:31;16.30;99.90
8856;DHT22;4464;50.882;4.730;2023-08-07T07:42:57;16.30;99.90
8856;DHT22;4464;50.882;4.730;2023-08-07T07:45:23;16.30;99.90
8856;DHT22;4464;50.882;4.730;2023-08-07T07:47:48;16.40;99.90
8856;DHT22;4464;50.882;4.730;2023-08-07T07:50:16;16.40;99.90
8856;DHT22;4464;50.882;4.730;2023-08-07T07:52:42;16.60;99.90
8856;DHT22;4464;50.882;4.730;2023-08-07T07:55:09;16.60;99.90
8856;DHT22;4464;50.882;4.730;2023-08-07T07:57:38;16.60;99.90
8856;DHT22;4464;50.882;4.730;2023-08-07T08:00:04;16.60;99.90
8856;DHT22;4464;50.882;4.730;2023-08-07T08:02:36;16.70;99.90
8856;DHT22;4464;50.882;4.730;2023-08-07T08:05:02;16.70;99.90
8856;DHT22;4464;50.882;4.730;2023-08-07T08:07:28;16.80;99.90
8856;DHT22;4464;50.882;4.730;2023-08-07T08:09:56;16.90;99.90
8856;DHT22;4464;50.882;4.730;2023-08-07T08:12:26;17.10;99.90
8856;DHT22;4464;50.882;4.730;2023-08-07T08:14:52;17.20;99.90
8856;DHT22;4464;50.882;4.730;2023-08-07T08:17:18;17.20;99.90
8856;DHT22;4464;50.882;4.730;2023-08-07T08:19:43;17.30;99.90
8856;DHT22;4464;50.882;4.730;2023-08-07T08:22:09;17.60;99.90
8856;DHT22;4464;50.882;4.730;2023-08-07T08:24:35;17.60;99.90
8856;DHT22;4464;50.882;4.730;2023-08-07T08:27:01;17.60;99.90
8856;DHT22;4464;50.882;4.730;2023-08-07T08:29:26;17.40;99.90
8856;DHT22;4464;50.882;4.730;2023-08-07T08:31:54;17.40;99.90
8856;DHT22;4464;50.882;4.730;2023-08-07T08:34:21;17.40;99.90
8856;DHT22;4464;50.882;4.730;2023-08-07T08:36:47;17.60;99.90
8856;DHT22;4464;50.882;4.730;2023-08-07T08:39:13;17.60;99.90
8856;DHT22;4464;50.882;4.730;2023-08-07T08:41:42;17.50;99.90
8856;DHT22;4464;50.882;4.730;2023-08-07T08:44:14;17.60;99.90
8856;DHT22;4464;50.882;4.730;2023-08-07T08:46:42;17.80;99.90
8856;DHT22;4464;50.882;4.730;2023-08-07T08:49:09;17.70;99.90
8856;DHT22;4464;50.882;4.730;2023-08-07T08:51:36;17.60;99.90
8856;DHT22;4464;50.882;4.730;2023-08-07T08:54:03;17.80;99.90
8856;DHT22;4464;50.882;4.730;2023-08-07T08:56:32;17.90;99.90
8856;DHT22;4464;50.882;4.730;2023-08-07T08:58:58;18.10;99.90
8856;DHT22;4464;50.882;4.730;2023-08-07T09:01:24;18.30;99.90
8856;DHT22;4464;50.882;4.730;2023-08-07T09:03:54;18.40;99.90
8856;DHT22;4464;50.882;4.730;2023-08-07T09:06:21;18.40;99.90
8856;DHT22;4464;50.882;4.730;2023-08-07T09:08:47;18.40;99.90
8856;DHT22;4464;50.882;4.730;2023-08-07T09:11:15;18.20;99.90
8856;DHT22;4464;50.882;4.730;2023-08-07T09:13:43;17.90;99.90
8856;DHT22;4464;50.882;4.730;2023-08-07T09:16:11;18.40;99.90
8856;DHT22;4464;50.882;4.730;2023-08-07T09:18:37;19.40;99.90
8856;DHT22;4464;50.882;4.730;2023-08-07T09:21:03;20.10;99.90
8856;DHT22;4464;50.882;4.730;2023-08-07T09:23:29;20.30;99.90
8856;DHT22;4464;50.882;4.730;2023-08-07T09:26:04;21.00;99.90
8856;DHT22;4464;50.882;4.730;2023-08-07T09:28:32;21.80;99.90
8856;DHT22;4464;50.882;4.730;2023-08-07T09:30:58;21.30;99.90
8856;DHT22;4464;50.882;4.730;2023-08-07T09:33:26;20.30;99.90
8856;DHT22;4464;50.882;4.730;2023-08-07T09:36:01;19.80;99.90
8856;DHT22;4464;50.882;4.730;2023-08-07T09:38:31;19.30;99.90
8856;DHT22;4464;50.882;4.730;2023-08-07T09:41:03;19.20;99.90
8856;DHT22;4464;50.882;4.730;2023-08-07T09:43:33;20.60;99.90
8856;DHT22;4464;50.882;4.730;2023-08-07T09:46:06;20.30;99.90
8856;DHT22;4464;50.882;4.730;2023-08-07T09:48:32;20.10;99.90
8856;DHT22;4464;50.882;4.730;2023-08-07T09:51:04;19.50;99.90
8856;DHT22;4464;50.882;4.730;2023-08-07T09:53:30;18.90;99.90
8856;DHT22;4464;50.882;4.730;2023-08-07T09:55:57;20.00;99.90
8856;DHT22;4464;50.882;4.730;2023-08-07T09:58:24;21.60;99.90
8856;DHT22;4464;50.882;4.730;2023-08-07T10:00:50;21.20;99.00
8856;DHT22;4464;50.882;4.730;2023-08-07T10:03:22;20.40;99.90
8856;DHT22;4464;50.882;4.730;2023-08-07T10:05:48;19.80;99.90
8856;DHT22;4464;50.882;4.730;2023-08-07T10:08:14;21.10;99.90
8856;DHT22;4464;50.882;4.730;2023-08-07T10:10:43;21.60;99.40
8856;DHT22;4464;50.882;4.730;2023-08-07T10:13:12;20.90;99.20
8856;DHT22;4464;50.882;4.730;2023-08-07T10:15:39;20.60;99.70
8856;DHT22;4464;50.882;4.730;2023-08-07T10:18:06;19.90;99.90
8856;DHT22;4464;50.882;4.730;2023-08-07T10:20:34;20.20;99.90
8856;DHT22;4464;50.882;4.730;2023-08-07T10:23:09;21.20;99.40
8856;DHT22;4464;50.882;4.730;2023-08-07T10:25:40;22.60;99.00
8856;DHT22;4464;50.882;4.730;2023-08-07T10:28:14;23.10;97.40
8856;DHT22;4464;50.882;4.730;2023-08-07T10:30:42;22.60;95.80
8856;DHT22;4464;50.882;4.730;2023-08-07T10:33:10;21.30;97.00
8856;DHT22;4464;50.882;4.730;2023-08-07T10:35:45;21.20;98.10
8856;DHT22;4464;50.882;4.730;2023-08-07T10:38:14;20.20;99.00
8856;DHT22;4464;50.882;4.730;2023-08-07T10:40:59;20.10;99.80
8856;DHT22;4464;50.882;4.730;2023-08-07T10:43:27;21.50;98.10
8856;DHT22;4464;50.882;4.730;2023-08-07T10:46:14;22.30;96.30
8856;DHT22;4464;50.882;4.730;2023-08-07T10:51:09;20.60;98.30
8856;DHT22;4464;50.882;4.730;2023-08-07T10:53:44;19.70;99.30
8856;DHT22;4464;50.882;4.730;2023-08-07T10:58:41;20.60;99.90
8856;DHT22;4464;50.882;4.730;2023-08-07T11:06:22;22.90;95.00
8856;DHT22;4464;50.882;4.730;2023-08-07T11:08:49;22.60;95.90
8856;DHT22;4464;50.882;4.730;2023-08-07T11:11:15;22.90;96.20
8856;DHT22;4464;50.882;4.730;2023-08-07T11:13:41;21.80;96.10
8856;DHT22;4464;50.882;4.730;2023-08-07T11:16:06;20.90;97.20
8856;DHT22;4464;50.882;4.730;2023-08-07T11:18:32;22.10;97.60
8856;DHT22;4464;50.882;4.730;2023-08-07T11:20:58;23.00;96.50
8856;DHT22;4464;50.882;4.730;2023-08-07T11:23:30;24.00;95.70
8856;DHT22;4464;50.882;4.730;2023-08-07T11:25:56;24.00;94.20
8856;DHT22;4464;50.882;4.730;2023-08-07T11:28:23;24.20;93.60
8856;DHT22;4464;50.882;4.730;2023-08-07T11:30:52;22.50;94.60
8856;DHT22;4464;50.882;4.730;2023-08-07T11:33:19;21.80;95.80
8856;DHT22;4464;50.882;4.730;2023-08-07T11:35:48;22.80;95.90
8856;DHT22;4464;50.882;4.730;2023-08-07T11:38:38;23.70;95.40
8856;DHT22;4464;50.882;4.730;2023-08-07T11:41:05;24.20;94.30
8856;DHT22;4464;50.882;4.730;2023-08-07T11:43:33;24.80;94.20
8856;DHT22;4464;50.882;4.730;2023-08-07T11:46:01;24.80;93.50
8856;DHT22;4464;50.882;4.730;2023-08-07T11:48:29;24.30;94.20
8856;DHT22;4464;50.882;4.730;2023-08-07T11:50:56;24.60;93.70
8856;DHT22;4464;50.882;4.730;2023-08-07T11:53:24;23.80;93.60
8856;DHT22;4464;50.882;4.730;2023-08-07T11:56:00;22.60;94.70
8856;DHT22;4464;50.882;4.730;2023-08-07T11:58:37;22.40;95.40
8856;DHT22;4464;50.882;4.730;2023-08-07T12:01:05;22.50;95.10
8856;DHT22;4464;50.882;4.730;2023-08-07T12:03:38;22.40;95.30
8856;DHT22;4464;50.882;4.730;2023-08-07T12:06:06;22.00;95.80
8856;DHT22;4464;50.882;4.730;2023-08-07T12:08:39;22.00;96.10
8856;DHT22;4464;50.882;4.730;2023-08-07T12:11:09;22.70;95.50
8856;DHT22;4464;50.882;4.730;2023-08-07T12:13:43;23.10;95.20
8856;DHT22;4464;50.882;4.730;2023-08-07T12:16:10;22.20;95.60
8856;DHT22;4464;50.882;4.730;2023-08-07T12:18:47;22.10;96.10
8856;DHT22;4464;50.882;4.730;2023-08-07T12:21:16;21.60;96.50
8856;DHT22;4464;50.882;4.730;2023-08-07T12:23:44;21.60;96.60
8856;DHT22;4464;50.882;4.730;2023-08-07T12:26:10;21.10;97.30
8856;DHT22;4464;50.882;4.730;2023-08-07T12:28:36;21.00;97.00
8856;DHT22;4464;50.882;4.730;2023-08-07T12:31:02;21.70;96.40
8856;DHT22;4464;50.882;4.730;2023-08-07T12:33:31;23.00;95.40
8856;DHT22;4464;50.882;4.730;2023-08-07T12:35:58;23.40;95.10
8856;DHT22;4464;50.882;4.730;2023-08-07T12:38:24;23.40;95.00
8856;DHT22;4464;50.882;4.730;2023-08-07T12:40:50;23.10;94.90
8856;DHT22;4464;50.882;4.730;2023-08-07T12:43:16;22.70;95.60
8856;DHT22;4464;50.882;4.730;2023-08-07T12:45:44;22.30;95.90
8856;DHT22;4464;50.882;4.730;2023-08-07T12:48:13;21.80;96.60
8856;DHT22;4464;50.882;4.730;2023-08-07T12:50:39;21.90;96.40
8856;DHT22;4464;50.882;4.730;2023-08-07T12:53:08;23.20;95.50
8856;DHT22;4464;50.882;4.730;2023-08-07T12:55:34;24.40;94.90
8856;DHT22;4464;50.882;4.730;2023-08-07T12:58:00;24.90;94.30
8856;DHT22;4464;50.882;4.730;2023-08-07T13:00:27;25.30;93.80
8856;DHT22;4464;50.882;4.730;2023-08-07T13:02:53;25.90;92.40
8856;DHT22;4464;50.882;4.730;2023-08-07T13:05:21;25.90;92.30
8856;DHT22;4464;50.882;4.730;2023-08-07T13:07:47;25.60;93.10
8856;DHT22;4464;50.882;4.730;2023-08-07T13:10:15;25.50;92.60
8856;DHT22;4464;50.882;4.730;2023-08-07T13:12:42;25.10;93.00
8856;DHT22;4464;50.882;4.730;2023-08-07T13:15:10;26.50;92.50
8856;DHT22;4464;50.882;4.730;2023-08-07T13:17:42;27.50;91.10
8856;DHT22;4464;50.882;4.730;2023-08-07T13:20:09;27.40;90.80
8856;DHT22;4464;50.882;4.730;2023-08-07T13:22:39;26.70;91.00
8856;DHT22;4464;50.882;4.730;2023-08-07T13:25:07;25.00;92.30
8856;DHT22;4464;50.882;4.730;2023-08-07T13:27:33;24.30;93.60
8856;DHT22;4464;50.882;4.730;2023-08-07T13:30:00;23.60;93.80
8856;DHT22;4464;50.882;4.730;2023-08-07T13:32:26;23.00;93.80
8856;DHT22;4464;50.882;4.730;2023-08-07T13:34:54;22.80;93.80
8856;DHT22;4464;50.882;4.730;2023-08-07T13:37:23;22.40;94.30
8856;DHT22;4464;50.882;4.730;2023-08-07T13:39:48;22.20;95.20
8856;DHT22;4464;50.882;4.730;2023-08-07T13:42:20;21.80;94.90
8856;DHT22;4464;50.882;4.730;2023-08-07T13:44:46;22.10;96.00
8856;DHT22;4464;50.882;4.730;2023-08-07T13:47:14;22.00;96.30
8856;DHT22;4464;50.882;4.730;2023-08-07T13:49:41;22.10;96.80
8856;DHT22;4464;50.882;4.730;2023-08-07T13:52:11;22.10;97.40
8856;DHT22;4464;50.882;4.730;2023-08-07T13:54:37;22.10;96.80
8856;DHT22;4464;50.882;4.730;2023-08-07T13:57:06;21.80;97.20
8856;DHT22;4464;50.882;4.730;2023-08-07T13:59:31;22.10;97.40
8856;DHT22;4464;50.882;4.730;2023-08-07T14:01:57;23.50;97.30
8856;DHT22;4464;50.882;4.730;2023-08-07T14:04:24;24.30;94.10
8856;DHT22;4464;50.882;4.730;2023-08-07T14:06:50;23.80;94.00
8856;DHT22;4464;50.882;4.730;2023-08-07T14:09:19;23.40;94.80
8856;DHT22;4464;50.882;4.730;2023-08-07T14:11:48;24.00;94.80
8856;DHT22;4464;50.882;4.730;2023-08-07T14:14:16;25.00;94.30
8856;DHT22;4464;50.882;4.730;2023-08-07T14:16:42;24.80;93.90
8856;DHT22;4464;50.882;4.730;2023-08-07T14:19:08;23.70;93.90
8856;DHT22;4464;50.882;4.730;2023-08-07T14:21:34;23.50;94.50
8856;DHT22;4464;50.882;4.730;2023-08-07T14:24:00;24.30;93.10
8856;DHT22;4464;50.882;4.730;2023-08-07T14:26:26;23.50;93.60
8856;DHT22;4464;50.882;4.730;2023-08-07T14:28:51;22.90;93.50
8856;DHT22;4464;50.882;4.730;2023-08-07T14:31:17;23.40;93.00
8856;DHT22;4464;50.882;4.730;2023-08-07T14:33:43;23.10;93.40
8856;DHT22;4464;50.882;4.730;2023-08-07T14:36:09;23.10;93.40
8856;DHT22;4464;50.882;4.730;2023-08-07T14:38:38;23.00;94.20
8856;DHT22;4464;50.882;4.730;2023-08-07T14:41:06;24.10;93.80
8856;DHT22;4464;50.882;4.730;2023-08-07T14:43:32;25.40;93.30
8856;DHT22;4464;50.882;4.730;2023-08-07T14:45:58;25.60;92.00
8856;DHT22;4464;50.882;4.730;2023-08-07T14:48:24;25.20;91.80
8856;DHT22;4464;50.882;4.730;2023-08-07T14:50:50;23.80;92.20
8856;DHT22;4464;50.882;4.730;2023-08-07T14:53:19;23.40;92.90
8856;DHT22;4464;50.882;4.730;2023-08-07T14:55:49;23.90;92.80
8856;DHT22;4464;50.882;4.730;2023-08-07T14:58:16;24.00;93.00
8856;DHT22;4464;50.882;4.730;2023-08-07T15:00:42;23.60;92.90
8856;DHT22;4464;50.882;4.730;2023-08-07T15:03:08;24.10;92.70
8856;DHT22;4464;50.882;4.730;2023-08-07T15:05:36;24.80;91.90
8856;DHT22;4464;50.882;4.730;2023-08-07T15:08:02;24.60;92.00
8856;DHT22;4464;50.882;4.730;2023-08-07T15:10:28;24.50;93.50
8856;DHT22;4464;50.882;4.730;2023-08-07T15:12:54;24.50;94.30
8856;DHT22;4464;50.882;4.730;2023-08-07T15:15:24;24.50;93.60
8856;DHT22;4464;50.882;4.730;2023-08-07T15:17:49;23.10;93.80
8856;DHT22;4464;50.882;4.730;2023-08-07T15:20:15;22.80;94.90
8856;DHT22;4464;50.882;4.730;2023-08-07T15:22:41;23.30;94.60
8856;DHT22;4464;50.882;4.730;2023-08-07T15:25:07;23.90;94.20
8856;DHT22;4464;50.882;4.730;2023-08-07T15:27:33;23.50;94.50
8856;DHT22;4464;50.882;4.730;2023-08-07T15:29:59;23.10;94.40
8856;DHT22;4464;50.882;4.730;2023-08-07T15:32:25;22.70;94.70
8856;DHT22;4464;50.882;4.730;2023-08-07T15:34:51;22.60;94.90
8856;DHT22;4464;50.882;4.730;2023-08-07T15:37:21;22.30;95.10
8856;DHT22;4464;50.882;4.730;2023-08-07T15:39:46;22.60;95.40
8856;DHT22;4464;50.882;4.730;2023-08-07T15:42:12;22.70;94.90
8856;DHT22;4464;50.882;4.730;2023-08-07T15:44:38;22.80;94.50
8856;DHT22;4464;50.882;4.730;2023-08-07T15:47:07;22.80;94.00
8856;DHT22;4464;50.882;4.730;2023-08-07T15:49:36;22.70;94.40
8856;DHT22;4464;50.882;4.730;2023-08-07T15:52:02;23.10;94.60
8856;DHT22;4464;50.882;4.730;2023-08-07T15:54:27;23.80;93.50
8856;DHT22;4464;50.882;4.730;2023-08-07T15:56:53;23.40;93.80
8856;DHT22;4464;50.882;4.730;2023-08-07T15:59:19;23.40;93.90
8856;DHT22;4464;50.882;4.730;2023-08-07T16:01:45;22.70;94.90
8856;DHT22;4464;50.882;4.730;2023-08-07T16:04:13;22.30;95.30
8856;DHT22;4464;50.882;4.730;2023-08-07T16:06:41;22.20;95.50
8856;DHT22;4464;50.882;4.730;2023-08-07T16:09:06;22.60;94.90
8856;DHT22;4464;50.882;4.730;2023-08-07T16:11:34;22.60;94.90
8856;DHT22;4464;50.882;4.730;2023-08-07T16:14:00;22.30;94.80
8856;DHT22;4464;50.882;4.730;2023-08-07T16:16:26;22.10;94.60